Time;durP1;ratioP1;P1;durP2;ratioP2;P2;SDS_P1;SDS_P2;PMS_P1;PMS_P2;Temp;Humidity;BMP_temperature;BMP_pressure;BME280_temperature;BME280_humidity;BME280_pressure;Samples;Min_cycle;Max_cycle;Signal;HPM_P1;HPM_P2
2022/12/19 00:01:15;;;;;;;;;;;;;;;;;;5003610;28;19980;-83
2022/12/19 00:03:43;;;;;;;;;;;;;;;;;;4986908;28;19905;-83
2022/12/19 00:06:11;;;;;;;;;;;;;;;;;;5003473;28;19977;-85
2022/12/19 00:08:43;;;;;;;;;;;;;;;;;;5002636;28;19962;-82
2022/12/19 00:11:16;;;;;;;;;;;;;;;;;;4988898;28;19941;-83
2022/12/19 00:13:48;;;;;;;;;;;;;;;;;;5018876;28;19902;-82
2022/12/19 00:16:32;;;;;;;;;;;;;;;;;;4985798;28;19905;-82
2022/12/19 00:19:19;;;;;;;;;;;;;;;;;;4988349;28;19977;-83
2022/12/19 00:21:59;;;;;;;;;;;;;;;;;;4986199;28;19914;-83
2022/12/19 00:24:31;;;;;;;;;;;;;;;;;;4984659;28;19908;-83
2022/12/19 00:27:21;;;;;;;;;;;;;;;;;;5005209;28;19914;-82
2022/12/19 00:29:57;;;;;;;;;;;;;;;;;;4988017;28;19921;-82
2022/12/19 00:32:29;;;;;;;;;;;;;;;;;;4987914;28;19965;-81
2022/12/19 00:35:03;;;;;;;;;;;;;;;;;;4987857;28;19929;-81
2022/12/19 00:37:34;;;;;;;;;;;;;;;;;;5003529;28;19945;-82
2022/12/19 00:40:14;;;;;;;;;;;;;;;;;;5003789;28;19929;-82
2022/12/19 00:42:48;;;;;;;;;;;;;;;;;;4986234;28;19910;-82
2022/12/19 00:45:28;;;;;;;;;;;;;;;;;;4980833;28;19913;-82
2022/12/19 00:48:01;;;;;;;;;;;;;;;;;;4996438;28;19913;-82
2022/12/19 00:50:30;;;;;;;;;;;;;;;;;;4983047;28;19985;-83
2022/12/19 00:52:58;;;;;;;;;;;;;;;;;;4984037;28;19902;-82
2022/12/19 00:55:41;;;;;;;;;;;;;;;;;;4989021;28;19921;-83
2022/12/19 00:58:50;;;;;;;;;;;;;;;;;;5002987;28;19949;-82
2022/12/19 01:01:25;;;;;;;;;;;;;;;;;;4987896;28;19906;-82
2022/12/19 01:04:01;;;;;;;;;;;;;;;;;;4989967;28;19925;-84
2022/12/19 01:06:38;;;;;;;;;;;;;;;;;;5002142;28;19957;-84
2022/12/19 01:09:27;;;;;;;;;;;;;;;;;;4989240;28;19936;-83
2022/12/19 01:14:47;;;;;;;;;;;;;;;;;;4998122;28;20281;-82
2022/12/19 01:17:36;;;;;;;;;;;;;;;;;;4987298;28;19964;-83
2022/12/19 01:20:14;;;;;;;;;;;;;;;;;;4987408;28;19918;-83
2022/12/19 01:22:57;;;;;;;;;;;;;;;;;;4989039;28;19922;-83
2022/12/19 01:25:28;;;;;;;;;;;;;;;;;;4986078;28;19965;-82
2022/12/19 01:28:08;;;;;;;;;;;;;;;;;;4986175;28;19924;-83
2022/12/19 01:30:41;;;;;;;;;;;;;;;;;;5000959;28;19960;-83
2022/12/19 01:33:18;;;;;;;;;;;;;;;;;;4986573;28;20388;-82
2022/12/19 01:35:47;;;;;;;;;;;;;;;;;;4998687;28;19914;-82
2022/12/19 01:38:16;;;;;;;;;;;;;;;;;;4973961;28;19943;-84
2022/12/19 01:40:46;;;;;;;;;;;;;;;;;;4996242;28;20357;-81
2022/12/19 01:43:13;;;;;;;;;;;;;;;;;;4980227;28;19917;-81
2022/12/19 01:45:40;;;;;;;;;;;;;;;;;;4981293;28;19920;-82
2022/12/19 01:48:14;;;;;;;;;;;;;;;;;;5000168;28;19914;-81
2022/12/19 01:51:05;;;;;;;;;;;;;;;;;;4992223;28;19909;-84
2022/12/19 01:53:41;;;;;;;;;;;;;;;;;;4987348;28;19902;-83
2022/12/19 01:56:22;;;;;;;;;;;;;;;;;;4987425;28;19977;-81
2022/12/19 01:58:59;;;;;;;;;;;;;;;;;;5003091;28;19906;-82
2022/12/19 02:01:28;;;;;;;;;;;;;;;;;;4984438;28;19898;-83
2022/12/19 02:03:59;;;;;;;;;;;;;;;;;;4985033;28;19898;-82
2022/12/19 02:06:34;;;;;;;;;;;;;;;;;;4986517;28;20304;-82
2022/12/19 02:09:05;;;;;;;;;;;;;;;;;;4985175;28;19898;-81
2022/12/19 02:11:37;;;;;;;;;;;;;;;;;;4985314;28;19948;-82
2022/12/19 02:14:09;;;;;;;;;;;;;;;;;;4984764;28;19981;-81
2022/12/19 02:16:42;;;;;;;;;;;;;;;;;;4984186;28;19918;-82
2022/12/19 02:19:16;;;;;;;;;;;;;;;;;;4983756;28;19941;-81
2022/12/19 02:21:47;;;;;;;;;;;;;;;;;;4979855;28;19976;-81
2022/12/19 02:24:21;;;;;;;;;;;;;;;;;;4999272;28;19924;-80
2022/12/19 02:26:50;;;;;;;;;;;;;;;;;;4985200;28;19898;-81
2022/12/19 02:29:20;;;;;;;;;;;;;;;;;;4986768;28;19894;-82
2022/12/19 02:31:48;;;;;;;;;;;;;;;;;;5001862;28;19924;-82
2022/12/19 02:34:24;;;;;;;;;;;;;;;;;;5014523;28;19983;-79
2022/12/19 02:37:01;;;;;;;;;;;;;;;;;;4983547;28;19929;-80
2022/12/19 02:39:28;;;;;;;;;;;;;;;;;;5000441;28;19914;-80
2022/12/19 02:41:54;;;;;;;;;;;;;;;;;;4984376;28;19998;-81
2022/12/19 02:44:21;;;;;;;;;;;;;;;;;;4984158;28;19910;-81
2022/12/19 02:46:47;;;;;;;;;;;;;;;;;;4984669;28;19905;-80
2022/12/19 02:49:13;;;;;;;;;;;;;;;;;;4984224;28;19913;-80
2022/12/19 02:51:43;;;;;;;;;;;;;;;;;;4983516;28;19960;-80
2022/12/19 02:54:09;;;;;;;;;;;;;;;;;;4993073;28;19914;-81
2022/12/19 02:56:36;;;;;;;;;;;;;;;;;;4991536;28;19961;-80
2022/12/19 02:59:03;;;;;;;;;;;;;;;;;;4990511;28;19914;-79
2022/12/19 03:01:29;;;;;;;;;;;;;;;;;;4973225;28;20431;-82
2022/12/19 03:03:55;;;;;;;;;;;;;;;;;;4989948;28;19914;-81
2022/12/19 03:06:24;;;;;;;;;;;;;;;;;;4991522;28;20377;-80
2022/12/19 03:08:54;;;;;;;;;;;;;;;;;;4993632;28;20286;-81
2022/12/19 03:11:23;;;;;;;;;;;;;;;;;;4993104;28;19924;-80
2022/12/19 03:13:50;;;;;;;;;;;;;;;;;;4979878;28;20431;-81
2022/12/19 03:16:18;;;;;;;;;;;;;;;;;;5009323;28;19953;-80
2022/12/19 03:18:44;;;;;;;;;;;;;;;;;;5008207;28;19921;-80
2022/12/19 03:21:11;;;;;;;;;;;;;;;;;;4992796;28;19937;-81
2022/12/19 03:23:37;;;;;;;;;;;;;;;;;;4991503;28;19921;-80
2022/12/19 03:26:05;;;;;;;;;;;;;;;;;;4975225;28;19972;-81
2022/12/19 03:28:31;;;;;;;;;;;;;;;;;;4988849;28;20316;-80
2022/12/19 03:30:57;;;;;;;;;;;;;;;;;;5005722;28;19918;-80
2022/12/19 03:33:26;;;;;;;;;;;;;;;;;;4989703;28;19980;-81
2022/12/19 03:35:53;;;;;;;;;;;;;;;;;;4988196;28;19960;-80
2022/12/19 03:38:19;;;;;;;;;;;;;;;;;;4977580;28;19977;-82
2022/12/19 03:40:45;;;;;;;;;;;;;;;;;;4985280;28;19913;-80
2022/12/19 03:43:12;;;;;;;;;;;;;;;;;;5017069;28;19940;-80
2022/12/19 03:45:38;;;;;;;;;;;;;;;;;;5000449;28;19914;-80
2022/12/19 03:48:04;;;;;;;;;;;;;;;;;;4999455;28;19924;-80
2022/12/19 03:50:32;;;;;;;;;;;;;;;;;;5015454;28;19980;-81
2022/12/19 03:52:59;;;;;;;;;;;;;;;;;;4995544;28;19913;-79
2022/12/19 03:55:25;;;;;;;;;;;;;;;;;;4982175;28;20336;-80
2022/12/19 03:57:55;;;;;;;;;;;;;;;;;;4982979;28;19914;-81
2022/12/19 04:00:24;;;;;;;;;;;;;;;;;;4983432;28;19918;-80
2022/12/19 04:02:56;;;;;;;;;;;;;;;;;;5002792;28;19913;-81
2022/12/19 04:05:22;;;;;;;;;;;;;;;;;;4999602;28;19906;-80
2022/12/19 04:07:51;;;;;;;;;;;;;;;;;;4983807;28;19914;-80
2022/12/19 04:10:18;;;;;;;;;;;;;;;;;;5001630;28;19906;-81
2022/12/19 04:12:44;;;;;;;;;;;;;;;;;;4982906;28;19920;-81
2022/12/19 04:15:14;;;;;;;;;;;;;;;;;;4999237;28;19937;-81
2022/12/19 04:17:40;;;;;;;;;;;;;;;;;;5017932;28;19920;-80
2022/12/19 04:20:07;;;;;;;;;;;;;;;;;;5003091;28;19913;-81
2022/12/19 04:22:33;;;;;;;;;;;;;;;;;;5003672;28;19957;-81
2022/12/19 04:25:09;;;;;;;;;;;;;;;;;;4987346;28;19909;-80
2022/12/19 04:27:35;;;;;;;;;;;;;;;;;;5003352;28;19902;-82
2022/12/19 04:30:01;;;;;;;;;;;;;;;;;;5019181;28;19949;-82
2022/12/19 04:32:31;;;;;;;;;;;;;;;;;;5018117;28;19901;-81
2022/12/19 04:35:00;;;;;;;;;;;;;;;;;;5016498;28;19914;-80
2022/12/19 04:37:26;;;;;;;;;;;;;;;;;;5002066;28;19902;-81
2022/12/19 04:39:58;;;;;;;;;;;;;;;;;;4986312;28;20023;-82
2022/12/19 04:42:24;;;;;;;;;;;;;;;;;;5017683;28;19913;-82
2022/12/19 04:44:51;;;;;;;;;;;;;;;;;;4985715;28;19898;-83
2022/12/19 04:47:21;;;;;;;;;;;;;;;;;;4979279;28;19973;-81
2022/12/19 04:49:47;;;;;;;;;;;;;;;;;;4973949;28;19920;-81
2022/12/19 04:52:13;;;;;;;;;;;;;;;;;;4974010;28;19914;-81
2022/12/19 04:54:39;;;;;;;;;;;;;;;;;;4973667;28;19948;-82
2022/12/19 04:57:06;;;;;;;;;;;;;;;;;;4975096;28;19921;-82
2022/12/19 04:59:39;;;;;;;;;;;;;;;;;;4975570;28;19941;-82
2022/12/19 05:02:12;;;;;;;;;;;;;;;;;;4978014;28;19950;-81
2022/12/19 05:04:43;;;;;;;;;;;;;;;;;;4994855;28;19914;-82
2022/12/19 05:07:09;;;;;;;;;;;;;;;;;;4993062;28;19914;-80
2022/12/19 05:09:38;;;;;;;;;;;;;;;;;;4977391;28;19953;-81
2022/12/19 05:12:27;;;;;;;;;;;;;;;;;;4982265;28;19908;-81
2022/12/19 05:14:55;;;;;;;;;;;;;;;;;;4993161;28;19981;-80
2022/12/19 05:17:21;;;;;;;;;;;;;;;;;;4976911;28;19961;-80
2022/12/19 05:19:47;;;;;;;;;;;;;;;;;;4998049;28;19914;-80
2022/12/19 05:22:14;;;;;;;;;;;;;;;;;;4996061;28;19996;-80
2022/12/19 05:24:40;;;;;;;;;;;;;;;;;;4991162;23;19930;-81
2022/12/19 05:27:05;;;;;;;;;;;;;;;;;;4962124;28;19921;-80
2022/12/19 05:29:31;;;;;;;;;;;;;;;;;;4977911;28;20012;-81
2022/12/19 05:31:56;;;;;;;;;;;;;;;;;;4979214;28;19925;-81
2022/12/19 05:34:21;;;;;;;;;;;;;;;;;;4979588;28;20305;-81
2022/12/19 05:36:47;;;;;;;;;;;;;;;;;;4962295;28;19937;-81
2022/12/19 05:39:12;;;;;;;;;;;;;;;;;;4994335;28;20013;-82
2022/12/19 05:41:37;;;;;;;;;;;;;;;;;;4961807;28;20345;-80
2022/12/19 05:44:03;;;;;;;;;;;;;;;;;;4979043;28;19957;-81
2022/12/19 05:46:28;;;;;;;;;;;;;;;;;;4979412;28;19921;-83
2022/12/19 05:48:53;;;;;;;;;;;;;;;;;;4981023;28;19921;-82
2022/12/19 05:51:19;;;;;;;;;;;;;;;;;;4980728;28;19922;-81
2022/12/19 05:53:45;;;;;;;;;;;;;;;;;;4980507;28;19914;-81
2022/12/19 05:56:10;;;;;;;;;;;;;;;;;;4982909;28;20402;-82
2022/12/19 05:58:36;;;;;;;;;;;;;;;;;;4985122;28;19914;-81
2022/12/19 06:01:01;;;;;;;;;;;;;;;;;;4970397;28;20396;-82
2022/12/19 06:03:27;;;;;;;;;;;;;;;;;;4972083;28;19914;-82
2022/12/19 06:05:52;;;;;;;;;;;;;;;;;;4974272;28;20157;-83
2022/12/19 06:08:18;;;;;;;;;;;;;;;;;;4993497;28;19915;-81
2022/12/19 06:10:43;;;;;;;;;;;;;;;;;;5009189;28;19918;-83
2022/12/19 06:13:08;;;;;;;;;;;;;;;;;;5009685;28;19914;-82
2022/12/19 06:15:34;;;;;;;;;;;;;;;;;;4975730;28;20378;-81
2022/12/19 06:17:59;;;;;;;;;;;;;;;;;;4990774;28;19965;-83
2022/12/19 06:20:24;;;;;;;;;;;;;;;;;;4988300;28;20469;-83
2022/12/19 06:22:50;;;;;;;;;;;;;;;;;;4988437;28;19914;-81
2022/12/19 06:25:15;;;;;;;;;;;;;;;;;;4987964;28;20321;-82
2022/12/19 06:27:41;;;;;;;;;;;;;;;;;;4956372;28;19914;-82
2022/12/19 06:30:06;;;;;;;;;;;;;;;;;;5003444;28;19918;-82
2022/12/19 06:32:32;;;;;;;;;;;;;;;;;;4987705;28;20377;-81
2022/12/19 06:34:57;;;;;;;;;;;;;;;;;;4988821;28;19921;-81
2022/12/19 06:37:22;;;;;;;;;;;;;;;;;;4986854;28;19915;-82
2022/12/19 06:39:48;;;;;;;;;;;;;;;;;;4987953;28;19976;-82
2022/12/19 06:42:22;;;;;;;;;;;;;;;;;;4989083;28;20389;-82
2022/12/19 06:44:48;;;;;;;;;;;;;;;;;;4985590;28;19929;-82
2022/12/19 06:47:13;;;;;;;;;;;;;;;;;;4985993;28;19910;-82
2022/12/19 06:49:38;;;;;;;;;;;;;;;;;;4983023;28;20030;-81
2022/12/19 06:52:04;;;;;;;;;;;;;;;;;;4982098;28;20043;-81
2022/12/19 06:54:30;;;;;;;;;;;;;;;;;;4980749;28;19940;-82
2022/12/19 06:56:55;;;;;;;;;;;;;;;;;;4986860;28;20453;-82
2022/12/19 06:59:21;;;;;;;;;;;;;;;;;;4983833;28;20008;-82
2022/12/19 07:01:46;;;;;;;;;;;;;;;;;;4983696;28;20286;-82
2022/12/19 07:04:11;;;;;;;;;;;;;;;;;;4983827;28;19942;-82
2022/12/19 07:06:37;;;;;;;;;;;;;;;;;;4983611;28;19968;-82
2022/12/19 07:09:02;;;;;;;;;;;;;;;;;;4987447;28;19960;-82
2022/12/19 07:11:28;;;;;;;;;;;;;;;;;;4983335;28;19918;-82
2022/12/19 07:13:53;;;;;;;;;;;;;;;;;;4985615;28;20008;-81
2022/12/19 07:16:19;;;;;;;;;;;;;;;;;;4967694;28;19921;-81
2022/12/19 07:18:44;;;;;;;;;;;;;;;;;;4987024;28;19914;-81
2022/12/19 07:21:10;;;;;;;;;;;;;;;;;;4985768;28;19942;-81
2022/12/19 07:23:35;;;;;;;;;;;;;;;;;;4984403;28;20377;-81
2022/12/19 07:26:01;;;;;;;;;;;;;;;;;;5001957;28;19976;-83
2022/12/19 07:28:26;;;;;;;;;;;;;;;;;;4973028;28;19914;-83
2022/12/19 07:30:51;;;;;;;;;;;;;;;;;;5004056;28;19918;-81
2022/12/19 07:33:17;;;;;;;;;;;;;;;;;;5002797;28;19915;-82
2022/12/19 07:35:42;;;;;;;;;;;;;;;;;;4989325;28;19977;-82
2022/12/19 07:38:08;;;;;;;;;;;;;;;;;;4969961;28;20370;-83
2022/12/19 07:40:33;;;;;;;;;;;;;;;;;;4986550;28;19914;-82
2022/12/19 07:42:59;;;;;;;;;;;;;;;;;;4986580;28;19921;-82
2022/12/19 07:45:24;;;;;;;;;;;;;;;;;;4984087;28;19936;-82
2022/12/19 07:47:50;;;;;;;;;;;;;;;;;;4983509;28;20369;-82
2022/12/19 07:50:15;;;;;;;;;;;;;;;;;;5002258;28;19922;-82
2022/12/19 07:52:44;;;;;;;;;;;;;;;;;;4987149;28;19973;-82
2022/12/19 07:55:09;;;;;;;;;;;;;;;;;;4986052;28;20481;-82
2022/12/19 07:57:34;;;;;;;;;;;;;;;;;;4986680;28;19981;-81
2022/12/19 08:00:00;;;;;;;;;;;;;;;;;;4981081;28;19960;-81
2022/12/19 08:02:25;;;;;;;;;;;;;;;;;;4998896;28;19914;-82
2022/12/19 08:04:50;;;;;;;;;;;;;;;;;;4969576;28;19925;-80
2022/12/19 08:07:16;;;;;;;;;;;;;;;;;;5000572;28;19938;-82
2022/12/19 08:09:41;;;;;;;;;;;;;;;;;;4984169;28;20525;-81
2022/12/19 08:12:07;;;;;;;;;;;;;;;;;;4978392;28;19918;-80
2022/12/19 08:14:32;;;;;;;;;;;;;;;;;;4978875;28;19921;-81
2022/12/19 08:16:57;;;;;;;;;;;;;;;;;;4979520;28;19937;-81
2022/12/19 08:19:23;;;;;;;;;;;;;;;;;;4978951;28;19945;-81
2022/12/19 08:21:48;;;;;;;;;;;;;;;;;;4961790;28;19914;-80
2022/12/19 08:24:14;;;;;;;;;;;;;;;;;;4980126;28;19996;-80
2022/12/19 08:26:40;;;;;;;;;;;;;;;;;;4980624;28;20433;-80
2022/12/19 08:29:05;;;;;;;;;;;;;;;;;;4981552;28;19914;-81
2022/12/19 08:31:30;;;;;;;;;;;;;;;;;;4981503;28;19924;-81
2022/12/19 08:33:56;;;;;;;;;;;;;;;;;;4982594;28;19921;-79
2022/12/19 08:36:21;;;;;;;;;;;;;;;;;;4979572;28;19924;-81
2022/12/19 08:38:47;;;;;;;;;;;;;;;;;;4981304;28;20386;-81
2022/12/19 08:41:13;;;;;;;;;;;;;;;;;;4979384;28;20361;-80
2022/12/19 08:43:38;;;;;;;;;;;;;;;;;;4980430;28;19914;-80
2022/12/19 08:46:03;;;;;;;;;;;;;;;;;;4962920;28;20366;-82
2022/12/19 08:48:29;;;;;;;;;;;;;;;;;;4995870;28;19919;-80
2022/12/19 08:50:55;;;;;;;;;;;;;;;;;;4981099;28;19977;-81
2022/12/19 08:53:21;;;;;;;;;;;;;;;;;;4970210;28;19914;-81
2022/12/19 08:55:47;;;;;;;;;;;;;;;;;;4986332;28;19914;-80
2022/12/19 08:58:13;;;;;;;;;;;;;;;;;;4988459;28;19914;-80
2022/12/19 09:00:38;;;;;;;;;;;;;;;;;;4990339;28;19948;-82
2022/12/19 09:03:03;;;;;;;;;;;;;;;;;;4972645;28;19922;-81
2022/12/19 09:05:29;;;;;;;;;;;;;;;;;;4988602;28;19925;-81
2022/12/19 09:07:54;;;;;;;;;;;;;;;;;;5000721;28;19921;-82
2022/12/19 09:10:20;;;;;;;;;;;;;;;;;;4984337;28;19917;-81
2022/12/19 09:12:45;;;;;;;;;;;;;;;;;;5000419;28;19914;-81
2022/12/19 09:15:11;;;;;;;;;;;;;;;;;;4999464;28;20337;-82
2022/12/19 09:17:36;;;;;;;;;;;;;;;;;;4961729;28;19914;-80
2022/12/19 09:20:02;;;;;;;;;;;;;;;;;;4964223;28;19914;-83
2022/12/19 09:22:27;;;;;;;;;;;;;;;;;;4979089;28;20298;-78
2022/12/19 09:24:53;;;;;;;;;;;;;;;;;;4980176;28;19918;-82
2022/12/19 09:27:19;;;;;;;;;;;;;;;;;;4987320;28;19918;-82
2022/12/19 09:29:44;;;;;;;;;;;;;;;;;;4951168;28;19920;-81
2022/12/19 09:32:10;;;;;;;;;;;;;;;;;;4981159;28;19922;-81
2022/12/19 09:34:37;;;;;;;;;;;;;;;;;;4977852;28;19921;-82
2022/12/19 09:37:02;;;;;;;;;;;;;;;;;;4995325;28;19976;-81
2022/12/19 09:39:27;;;;;;;;;;;;;;;;;;4983021;28;20003;-81
2022/12/19 09:41:53;;;;;;;;;;;;;;;;;;4982765;28;19920;-81
2022/12/19 09:44:18;;;;;;;;;;;;;;;;;;4964903;28;19914;-81
2022/12/19 09:46:44;;;;;;;;;;;;;;;;;;4985813;28;19914;-81
2022/12/19 09:49:09;;;;;;;;;;;;;;;;;;4982030;28;19918;-81
2022/12/19 09:51:35;;;;;;;;;;;;;;;;;;4984923;28;19918;-80
2022/12/19 09:54:00;;;;;;;;;;;;;;;;;;4980873;28;19914;-80
2022/12/19 09:56:26;;;;;;;;;;;;;;;;;;4983109;28;19921;-82
2022/12/19 09:58:51;;;;;;;;;;;;;;;;;;4981339;28;20357;-82
2022/12/19 10:01:16;;;;;;;;;;;;;;;;;;4973508;28;19924;-83
2022/12/19 10:03:42;;;;;;;;;;;;;;;;;;4987057;28;19914;-77
2022/12/19 10:06:07;;;;;;;;;;;;;;;;;;4976948;28;19914;-77
2022/12/19 10:08:33;;;;;;;;;;;;;;;;;;4981278;28;20347;-82
2022/12/19 10:10:58;;;;;;;;;;;;;;;;;;4957547;28;19918;-82
2022/12/19 10:13:24;;;;;;;;;;;;;;;;;;4969743;28;19922;-80
2022/12/19 10:15:50;;;;;;;;;;;;;;;;;;4983081;28;19926;-82
2022/12/19 10:18:15;;;;;;;;;;;;;;;;;;4970198;28;19918;-81
2022/12/19 10:20:40;;;;;;;;;;;;;;;;;;4964582;29;19925;-81
2022/12/19 10:23:06;;;;;;;;;;;;;;;;;;4965778;28;19914;-82
2022/12/19 10:25:31;;;;;;;;;;;;;;;;;;4968235;29;19965;-82
2022/12/19 10:27:57;;;;;;;;;;;;;;;;;;4953704;29;19917;-82
2022/12/19 10:30:22;;;;;;;;;;;;;;;;;;4975115;28;19902;-83
2022/12/19 10:32:48;;;;;;;;;;;;;;;;;;4978207;28;19973;-83
2022/12/19 10:35:13;;;;;;;;;;;;;;;;;;4979281;28;19926;-84
2022/12/19 10:37:39;;;;;;;;;;;;;;;;;;4962944;28;19918;-84
2022/12/19 10:40:04;;;;;;;;;;;;;;;;;;4978018;29;19919;-83
2022/12/19 10:42:30;;;;;;;;;;;;;;;;;;4978409;28;19928;-83
2022/12/19 10:44:55;;;;;;;;;;;;;;;;;;4980529;28;19946;-83
2022/12/19 10:47:21;;;;;;;;;;;;;;;;;;4981917;28;19941;-83
2022/12/19 10:49:48;;;;;;;;;;;;;;;;;;4966472;28;19923;-84
2022/12/19 10:52:14;;;;;;;;;;;;;;;;;;4982701;28;19926;-85
2022/12/19 10:54:40;;;;;;;;;;;;;;;;;;5197878;23;20013;-87
2022/12/19 11:24:02;;;;;;;;;;;;;;;;;;5792626;23;19926;-82
2022/12/19 11:26:32;;;;;;;;;;;;;;;;;;5011616;28;19970;-81
2022/12/19 11:29:00;;;;;;;;;;;;;;;;;;4996528;28;19921;-83
2022/12/19 11:31:27;;;;;;;;;;;;;;;;;;4981404;28;19918;-84
2022/12/19 11:33:53;;;;;;;;;;;;;;;;;;4999176;28;19914;-83
2022/12/19 11:36:19;;;;;;;;;;;;;;;;;;4993694;28;19963;-83
2022/12/19 11:38:47;;;;;;;;;;;;;;;;;;5004842;28;19914;-81
2022/12/19 11:41:13;;;;;;;;;;;;;;;;;;4989330;28;19914;-81
2022/12/19 11:43:39;;;;;;;;;;;;;;;;;;4984217;28;19921;-81
2022/12/19 11:46:04;;;;;;;;;;;;;;;;;;4998498;28;19921;-80
2022/12/19 11:48:30;;;;;;;;;;;;;;;;;;4964522;28;19980;-79
2022/12/19 11:50:55;;;;;;;;;;;;;;;;;;4995976;28;19917;-80
2022/12/19 11:53:21;;;;;;;;;;;;;;;;;;4994340;28;19920;-79
2022/12/19 11:55:46;;;;;;;;;;;;;;;;;;4994334;28;19914;-80
2022/12/19 11:58:11;;;;;;;;;;;;;;;;;;4994662;28;19914;-79
2022/12/19 12:00:37;;;;;;;;;;;;;;;;;;4994719;28;20423;-79
2022/12/19 12:03:02;;;;;;;;;;;;;;;;;;4995312;28;19913;-79
2022/12/19 12:05:28;;;;;;;;;;;;;;;;;;4993784;28;20270;-79
2022/12/19 12:07:53;;;;;;;;;;;;;;;;;;4995418;28;19968;-79
2022/12/19 12:10:18;;;;;;;;;;;;;;;;;;4994441;28;19917;-79
2022/12/19 12:12:44;;;;;;;;;;;;;;;;;;4993665;28;20280;-79
2022/12/19 12:15:09;;;;;;;;;;;;;;;;;;4995037;28;20348;-79
2022/12/19 12:17:35;;;;;;;;;;;;;;;;;;4993727;28;20392;-78
2022/12/19 12:20:00;;;;;;;;;;;;;;;;;;4994634;28;19914;-79
2022/12/19 12:22:25;;;;;;;;;;;;;;;;;;4993204;28;20389;-79
2022/12/19 12:24:51;;;;;;;;;;;;;;;;;;4993782;28;19968;-79
2022/12/19 12:27:16;;;;;;;;;;;;;;;;;;4994754;28;19945;-79
2022/12/19 12:29:42;;;;;;;;;;;;;;;;;;4994049;28;19965;-78
2022/12/19 12:32:07;;;;;;;;;;;;;;;;;;4993781;28;19939;-78
2022/12/19 12:34:33;;;;;;;;;;;;;;;;;;4995032;28;19928;-79
2022/12/19 12:36:58;;;;;;;;;;;;;;;;;;4977646;28;19960;-79
2022/12/19 12:39:24;;;;;;;;;;;;;;;;;;4994980;28;20432;-79
2022/12/19 12:42:04;;;;;;;;;;;;;;;;;;4994894;28;19926;-78
2022/12/19 12:44:30;;;;;;;;;;;;;;;;;;4993753;28;20453;-78
2022/12/19 12:46:55;;;;;;;;;;;;;;;;;;4977775;28;19968;-78
2022/12/19 12:49:21;;;;;;;;;;;;;;;;;;4994650;28;20305;-79
2022/12/19 12:51:46;;;;;;;;;;;;;;;;;;4992889;28;19918;-79
2022/12/19 12:54:11;;;;;;;;;;;;;;;;;;4976532;28;20369;-78
2022/12/19 12:56:37;;;;;;;;;;;;;;;;;;4994015;28;19921;-79
2022/12/19 12:59:02;;;;;;;;;;;;;;;;;;4993195;28;20451;-79
2022/12/19 13:01:27;;;;;;;;;;;;;;;;;;4993939;28;20361;-79
2022/12/19 13:03:53;;;;;;;;;;;;;;;;;;4993477;28;20393;-79
2022/12/19 13:06:18;;;;;;;;;;;;;;;;;;4994286;28;20377;-78
2022/12/19 13:08:44;;;;;;;;;;;;;;;;;;4991895;28;19914;-80
2022/12/19 13:11:09;;;;;;;;;;;;;;;;;;4976428;28;19921;-79
2022/12/19 13:13:34;;;;;;;;;;;;;;;;;;4976307;28;19917;-79
2022/12/19 13:16:00;;;;;;;;;;;;;;;;;;4993654;28;19918;-77
2022/12/19 13:18:26;;;;;;;;;;;;;;;;;;4992760;28;19984;-79
2022/12/19 13:20:52;;;;;;;;;;;;;;;;;;4960509;28;20317;-80
2022/12/19 13:23:17;;;;;;;;;;;;;;;;;;4975918;28;20397;-79
2022/12/19 13:25:42;;;;;;;;;;;;;;;;;;4992258;28;20300;-79
2022/12/19 13:28:08;;;;;;;;;;;;;;;;;;4993513;28;20364;-80
2022/12/19 13:30:34;;;;;;;;;;;;;;;;;;4994113;28;20021;-80
2022/12/19 13:32:59;;;;;;;;;;;;;;;;;;4991309;28;19910;-79
2022/12/19 13:35:25;;;;;;;;;;;;;;;;;;4994746;28;20374;-80
2022/12/19 13:37:50;;;;;;;;;;;;;;;;;;4993548;28;19918;-80
2022/12/19 13:40:15;;;;;;;;;;;;;;;;;;4993430;28;19924;-80
2022/12/19 13:45:25;;;;;;;;;;;;;;;;;;4992034;28;19914;-79
2022/12/19 13:47:51;;;;;;;;;;;;;;;;;;4993177;28;19914;-79
2022/12/19 13:50:16;;;;;;;;;;;;;;;;;;4991970;28;20459;-79
2022/12/19 13:52:42;;;;;;;;;;;;;;;;;;4992965;28;19917;-80
2022/12/19 13:55:07;;;;;;;;;;;;;;;;;;4992171;28;20361;-79
2022/12/19 13:57:32;;;;;;;;;;;;;;;;;;4993369;28;20008;-80
2022/12/19 13:59:58;;;;;;;;;;;;;;;;;;4992116;28;19920;-80
2022/12/19 14:02:23;;;;;;;;;;;;;;;;;;4975652;28;20389;-79
2022/12/19 14:04:49;;;;;;;;;;;;;;;;;;4975678;28;19957;-80
2022/12/19 14:07:14;;;;;;;;;;;;;;;;;;4993154;28;19914;-79
2022/12/19 14:09:39;;;;;;;;;;;;;;;;;;4991958;28;19924;-79
2022/12/19 14:12:05;;;;;;;;;;;;;;;;;;4977598;28;19914;-80
2022/12/19 14:17:14;;;;;;;;;;;;;;;;;;4993172;28;19914;-80
2022/12/19 14:19:40;;;;;;;;;;;;;;;;;;4977391;28;19918;-81
2022/12/19 14:22:05;;;;;;;;;;;;;;;;;;4979391;28;19917;-80
2022/12/19 14:24:31;;;;;;;;;;;;;;;;;;4996593;28;19924;-81
2022/12/19 14:26:56;;;;;;;;;;;;;;;;;;4997486;28;20385;-80
2022/12/19 14:29:22;;;;;;;;;;;;;;;;;;4995790;28;20332;-80
2022/12/19 14:31:47;;;;;;;;;;;;;;;;;;4996125;28;19918;-80
2022/12/19 14:34:13;;;;;;;;;;;;;;;;;;4996920;28;20527;-80
2022/12/19 14:36:38;;;;;;;;;;;;;;;;;;4997246;28;19910;-81
2022/12/19 14:39:03;;;;;;;;;;;;;;;;;;4964158;28;20289;-81
2022/12/19 14:44:13;;;;;;;;;;;;;;;;;;4995650;28;19981;-80
2022/12/19 14:46:38;;;;;;;;;;;;;;;;;;4997784;28;19910;-80
2022/12/19 14:49:04;;;;;;;;;;;;;;;;;;4996027;28;19998;-81
2022/12/19 14:51:29;;;;;;;;;;;;;;;;;;4997300;28;20417;-80
2022/12/19 14:53:54;;;;;;;;;;;;;;;;;;4995870;28;20017;-79
2022/12/19 14:56:21;;;;;;;;;;;;;;;;;;4996168;28;20447;-80
2022/12/19 14:58:47;;;;;;;;;;;;;;;;;;4979840;28;19918;-80
2022/12/19 15:01:12;;;;;;;;;;;;;;;;;;4996784;28;19910;-80
2022/12/19 15:03:37;;;;;;;;;;;;;;;;;;4995979;28;19913;-81
2022/12/19 15:06:03;;;;;;;;;;;;;;;;;;4997473;28;19913;-80
2022/12/19 15:08:28;;;;;;;;;;;;;;;;;;4980042;28;19913;-81
2022/12/19 15:10:54;;;;;;;;;;;;;;;;;;4996909;28;20344;-81
2022/12/19 15:13:22;;;;;;;;;;;;;;;;;;4994746;28;22346;-81
2022/12/19 15:15:47;;;;;;;;;;;;;;;;;;4979627;28;19964;-81
2022/12/19 15:18:13;;;;;;;;;;;;;;;;;;4984766;28;19913;-81
2022/12/19 15:20:38;;;;;;;;;;;;;;;;;;4995342;28;20289;-81
2022/12/19 15:23:03;;;;;;;;;;;;;;;;;;4995881;28;19914;-81
2022/12/19 15:25:29;;;;;;;;;;;;;;;;;;4995377;28;19918;-80
2022/12/19 15:27:55;;;;;;;;;;;;;;;;;;4995855;28;19964;-81
2022/12/19 15:30:20;;;;;;;;;;;;;;;;;;4995647;28;19926;-80
2022/12/19 15:32:46;;;;;;;;;;;;;;;;;;4962877;28;19963;-80
2022/12/19 15:35:11;;;;;;;;;;;;;;;;;;4979247;28;20366;-80
2022/12/19 15:37:37;;;;;;;;;;;;;;;;;;4994662;28;19920;-80
2022/12/19 15:40:02;;;;;;;;;;;;;;;;;;4978735;28;19914;-80
2022/12/19 15:42:28;;;;;;;;;;;;;;;;;;4994272;28;19917;-80
2022/12/19 15:44:55;;;;;;;;;;;;;;;;;;4996391;28;19914;-80
2022/12/19 15:47:20;;;;;;;;;;;;;;;;;;4994533;28;19925;-80
2022/12/19 15:49:46;;;;;;;;;;;;;;;;;;4978163;28;19917;-80
2022/12/19 15:52:11;;;;;;;;;;;;;;;;;;4978623;28;19964;-80
2022/12/19 15:54:36;;;;;;;;;;;;;;;;;;4994098;28;20381;-80
2022/12/19 15:57:02;;;;;;;;;;;;;;;;;;4994443;28;19920;-80
2022/12/19 15:59:27;;;;;;;;;;;;;;;;;;4994507;28;20187;-79
2022/12/19 16:01:53;;;;;;;;;;;;;;;;;;4995925;28;19921;-79
2022/12/19 16:04:18;;;;;;;;;;;;;;;;;;4994300;28;19917;-80
2022/12/19 16:06:44;;;;;;;;;;;;;;;;;;4978266;28;19952;-80
2022/12/19 16:09:11;;;;;;;;;;;;;;;;;;4994169;28;19923;-80
2022/12/19 16:11:36;;;;;;;;;;;;;;;;;;4979653;28;20513;-80
2022/12/19 16:14:02;;;;;;;;;;;;;;;;;;4994435;28;19977;-80
2022/12/19 16:16:27;;;;;;;;;;;;;;;;;;4994240;28;19922;-79
2022/12/19 16:18:53;;;;;;;;;;;;;;;;;;4993492;28;20016;-80
2022/12/19 16:21:18;;;;;;;;;;;;;;;;;;5010623;28;20381;-81
2022/12/19 16:23:44;;;;;;;;;;;;;;;;;;4978210;28;19936;-81
2022/12/19 16:26:09;;;;;;;;;;;;;;;;;;4994096;28;19921;-80
2022/12/19 16:28:35;;;;;;;;;;;;;;;;;;5010107;28;19952;-80
2022/12/19 16:31:00;;;;;;;;;;;;;;;;;;4994823;28;19964;-80
2022/12/19 16:33:27;;;;;;;;;;;;;;;;;;4973518;28;19914;-79
2022/12/19 16:35:52;;;;;;;;;;;;;;;;;;5002995;28;19905;-81
2022/12/19 16:40:53;;;;;;;;;;;;;;;;;;5133672;22;19930;-82
2022/12/19 16:43:19;;;;;;;;;;;;;;;;;;4982047;28;19921;-82
2022/12/19 16:45:44;;;;;;;;;;;;;;;;;;4998134;28;19917;-81
2022/12/19 16:48:10;;;;;;;;;;;;;;;;;;4980547;28;19913;-82
2022/12/19 16:50:35;;;;;;;;;;;;;;;;;;4997471;28;20393;-81
2022/12/19 16:53:01;;;;;;;;;;;;;;;;;;4983827;28;19914;-82
2022/12/19 16:55:26;;;;;;;;;;;;;;;;;;4945505;28;19937;-82
2022/12/19 16:57:51;;;;;;;;;;;;;;;;;;4945078;28;20396;-82
2022/12/19 17:00:17;;;;;;;;;;;;;;;;;;4961793;28;19921;-81
2022/12/19 17:02:42;;;;;;;;;;;;;;;;;;4977615;28;20381;-81
2022/12/19 17:05:08;;;;;;;;;;;;;;;;;;4961925;28;19914;-82
2022/12/19 17:07:33;;;;;;;;;;;;;;;;;;4975925;28;19953;-81
2022/12/19 17:09:58;;;;;;;;;;;;;;;;;;4986536;28;19977;-82
2022/12/19 17:12:24;;;;;;;;;;;;;;;;;;5011718;28;19922;-81
2022/12/19 17:14:50;;;;;;;;;;;;;;;;;;5012180;28;19914;-82
2022/12/19 17:17:15;;;;;;;;;;;;;;;;;;5012812;28;20368;-82
2022/12/19 17:19:41;;;;;;;;;;;;;;;;;;4997166;28;19914;-81
2022/12/19 17:22:06;;;;;;;;;;;;;;;;;;4996953;28;20000;-82
2022/12/19 17:24:31;;;;;;;;;;;;;;;;;;4996927;28;20027;-82
2022/12/19 17:26:57;;;;;;;;;;;;;;;;;;4995360;28;19965;-81